createdAt,value
2022-11-16T00:00:26.134Z,6.70
2022-11-16T00:02:28.109Z,6.70
2022-11-16T02:18:32.209Z,6.70
2022-11-16T02:20:44.051Z,6.60
2022-11-16T02:23:13.659Z,6.60
2022-11-16T02:25:34.542Z,6.50
2022-11-16T02:28:03.831Z,6.60
2022-11-16T02:30:06.999Z,6.60
2022-11-16T02:32:15.500Z,6.60
2022-11-16T02:34:19.475Z,6.60
2022-11-16T02:36:23.722Z,6.60
2022-11-16T02:38:32.980Z,6.60
2022-11-16T02:40:39.365Z,6.50
2022-11-16T02:42:59.416Z,6.60
2022-11-16T02:45:02.784Z,6.60
2022-11-16T02:47:11.813Z,6.60
2022-11-16T02:49:19.495Z,6.50
2022-11-16T02:51:22.892Z,6.60
2022-11-16T02:53:25.884Z,6.60
2022-11-16T02:55:30.409Z,6.50
2022-11-16T02:58:01.242Z,6.50
2022-11-16T03:00:05.612Z,6.50
2022-11-16T03:02:21.421Z,6.50
2022-11-16T03:04:56.613Z,6.50
2022-11-16T03:07:02.311Z,6.50
2022-11-16T03:09:21.512Z,6.50
2022-11-16T03:11:42.321Z,6.50
2022-11-16T03:13:45.376Z,6.50
2022-11-16T03:15:49.070Z,6.50
2022-11-16T03:17:50.952Z,6.50
2022-11-16T03:20:02.219Z,6.50
2022-11-16T03:22:12.773Z,6.50
2022-11-16T03:24:15.222Z,6.50
2022-11-16T03:26:22.645Z,6.50
2022-11-16T03:28:27.509Z,6.60
2022-11-16T03:30:35.647Z,6.50
2022-11-16T03:32:43.137Z,6.50
2022-11-16T03:34:56.008Z,6.60
2022-11-16T03:37:00.506Z,6.50
2022-11-16T03:39:19.008Z,6.50
2022-11-16T03:41:23.532Z,6.50
2022-11-16T03:43:27.319Z,6.50
2022-11-16T03:45:30.352Z,6.50
2022-11-16T03:47:32.270Z,6.60
2022-11-16T03:49:34.340Z,6.60
2022-11-16T03:51:36.104Z,6.60
2022-11-16T03:53:37.976Z,6.60
2022-11-16T03:55:40.121Z,6.50
2022-11-16T03:57:41.831Z,6.60
2022-11-16T03:59:43.743Z,6.60
2022-11-16T04:01:45.674Z,6.60
2022-11-16T04:03:47.673Z,6.50
2022-11-16T04:06:07.981Z,6.60
2022-11-16T04:08:35.031Z,6.60
2022-11-16T04:10:55.420Z,6.60
2022-11-16T04:13:31.731Z,6.60
2022-11-16T04:15:51.928Z,6.60
2022-11-16T04:18:12.542Z,6.60
2022-11-16T04:20:34.250Z,6.60
2022-11-16T04:23:06.505Z,6.60
2022-11-16T04:25:26.948Z,6.60
2022-11-16T04:27:49.435Z,6.60
2022-11-16T04:29:51.337Z,6.60
2022-11-16T04:32:11.679Z,6.60
2022-11-16T04:34:32.263Z,6.60
2022-11-16T04:36:52.771Z,6.60
2022-11-16T04:38:54.640Z,6.70
2022-11-16T04:40:56.476Z,6.70
2022-11-16T04:43:03.379Z,6.70
2022-11-16T04:45:23.996Z,6.70
2022-11-16T04:47:25.800Z,6.60
2022-11-16T04:49:27.888Z,6.70
2022-11-16T04:51:29.622Z,6.70
2022-11-16T04:53:31.493Z,6.70
2022-11-16T04:55:34.069Z,6.70
2022-11-16T04:57:36.113Z,6.70
2022-11-16T04:59:37.960Z,6.70
2022-11-16T05:01:58.417Z,6.80
2022-11-16T05:04:00.277Z,6.70
2022-11-16T05:06:02.104Z,6.70
2022-11-16T05:08:05.477Z,6.80
2022-11-16T05:10:09.201Z,6.80
2022-11-16T05:12:18.101Z,6.80
2022-11-16T05:14:20.078Z,6.80
2022-11-16T05:16:22.008Z,6.80
2022-11-16T05:18:23.917Z,6.80
2022-11-16T05:20:44.414Z,6.80
2022-11-16T05:22:55.981Z,6.80
2022-11-16T05:24:57.891Z,6.90
2022-11-16T05:27:04.672Z,6.80
2022-11-16T05:29:06.492Z,6.80
2022-11-16T05:31:08.384Z,6.80
2022-11-16T05:33:10.263Z,6.80
2022-11-16T05:35:12.125Z,6.80
2022-11-16T05:37:14.577Z,6.80
2022-11-16T05:39:16.874Z,6.80
2022-11-16T05:41:18.737Z,6.80
2022-11-16T05:43:20.574Z,6.80
2022-11-16T05:45:22.463Z,6.70
2022-11-16T05:47:24.381Z,6.70
2022-11-16T05:49:26.334Z,6.70
2022-11-16T05:51:28.284Z,6.70
2022-11-16T05:53:30.136Z,6.80
2022-11-16T05:55:31.960Z,6.80
2022-11-16T05:57:33.843Z,6.80
2022-11-16T05:59:36.061Z,6.80
2022-11-16T08:20:16.969Z,8.80
2022-11-16T08:22:18.794Z,8.70
2022-11-16T08:24:20.694Z,8.60
2022-11-16T08:26:22.946Z,8.60
2022-11-16T08:28:24.985Z,8.50
2022-11-16T08:30:26.984Z,8.50
2022-11-16T08:32:31.733Z,8.40
2022-11-16T08:34:34.223Z,8.40
2022-11-16T08:36:36.251Z,8.40
2022-11-16T08:38:40.622Z,8.40
2022-11-16T08:40:42.460Z,8.40
2022-11-16T08:42:44.474Z,8.50
2022-11-16T08:44:46.425Z,8.50
2022-11-16T08:46:48.252Z,8.50
2022-11-16T08:48:54.518Z,8.70
2022-11-16T08:51:16.953Z,8.80
2022-11-16T08:53:20.217Z,8.80
2022-11-16T08:55:22.046Z,9.00
2022-11-16T08:57:23.892Z,9.10
2022-11-16T08:59:25.720Z,9.30
2022-11-16T09:01:29.937Z,9.50
2022-11-16T09:03:31.825Z,9.60
2022-11-16T09:05:33.687Z,9.50
2022-11-16T09:07:35.600Z,9.50
2022-11-16T09:09:37.605Z,9.50
2022-11-16T09:11:39.588Z,9.50
2022-11-16T09:13:41.703Z,9.60
2022-11-16T09:15:44.754Z,9.60
2022-11-16T09:17:46.950Z,9.60
2022-11-16T09:19:48.673Z,9.50
2022-11-16T09:21:50.607Z,9.30
2022-11-16T09:23:54.226Z,9.30
2022-11-16T09:25:56.130Z,9.40
2022-11-16T09:27:58.088Z,9.30
2022-11-16T09:29:59.915Z,9.20
2022-11-16T09:32:02.299Z,9.30
2022-11-16T09:34:04.639Z,9.30
2022-11-16T09:36:08.774Z,9.30
2022-11-16T09:38:12.702Z,9.20
2022-11-16T09:40:18.176Z,9.10
2022-11-16T09:42:28.639Z,9.00
2022-11-16T09:44:51.565Z,9.10
2022-11-16T09:46:57.688Z,9.10
2022-11-16T09:49:02.830Z,9.20
2022-11-16T09:51:09.681Z,9.20
2022-11-16T09:53:34.261Z,9.10
2022-11-16T09:55:47.647Z,9.20
2022-11-16T09:57:53.971Z,9.30
2022-11-16T10:00:01.660Z,9.20
2022-11-16T10:02:26.952Z,9.30
2022-11-16T10:04:51.418Z,9.30
2022-11-16T10:07:15.597Z,9.20
2022-11-16T10:09:17.755Z,9.20
2022-11-16T10:11:22.567Z,9.00
2022-11-16T10:13:36.704Z,8.90
2022-11-16T10:16:05.238Z,9.00
2022-11-16T10:18:30.257Z,9.00
2022-11-16T10:20:56.694Z,8.90
2022-11-16T10:23:10.345Z,8.80
2022-11-16T10:25:16.675Z,8.80
2022-11-16T10:27:57.600Z,8.70
2022-11-16T10:30:17.633Z,8.70
2022-11-16T10:32:19.737Z,8.60
2022-11-16T10:34:29.662Z,8.70
2022-11-16T10:36:35.915Z,8.70
2022-11-16T10:38:38.590Z,8.80
2022-11-16T10:40:41.412Z,8.80
2022-11-16T10:42:45.195Z,8.80
2022-11-16T10:45:06.444Z,8.80
2022-11-16T10:47:29.403Z,8.90
2022-11-16T10:49:44.903Z,8.90
2022-11-16T10:51:46.877Z,8.90
2022-11-16T10:53:49.587Z,8.80
2022-11-16T10:56:16.073Z,8.90
2022-11-16T10:58:17.973Z,8.90
2022-11-16T11:00:34.945Z,8.90
2022-11-16T11:02:37.343Z,8.80
2022-11-16T11:04:39.314Z,8.80
2022-11-16T11:06:41.770Z,8.70
2022-11-16T11:08:43.644Z,8.70
2022-11-16T11:11:01.794Z,8.70
2022-11-16T11:13:16.088Z,8.70
2022-11-16T11:15:27.095Z,8.70
2022-11-16T11:17:31.056Z,8.70
2022-11-16T11:19:32.928Z,8.70
2022-11-16T11:21:35.164Z,8.70
2022-11-16T11:23:43.426Z,8.60
2022-11-16T11:25:55.283Z,8.70
2022-11-16T11:28:07.540Z,8.60
2022-11-16T11:30:20.287Z,8.60
2022-11-16T11:32:24.693Z,8.60
2022-11-16T11:34:34.534Z,8.60
2022-11-16T11:36:42.021Z,8.60
2022-11-16T11:39:05.637Z,8.60
2022-11-16T11:41:19.595Z,8.60
2022-11-16T11:43:24.615Z,8.60
2022-11-16T11:45:33.532Z,8.60
2022-11-16T11:48:00.824Z,8.60
2022-11-16T11:50:21.104Z,8.50
2022-11-16T11:52:37.873Z,8.50
2022-11-16T11:54:46.788Z,8.50
2022-11-16T11:56:48.799Z,8.60
2022-11-16T11:58:51.902Z,8.60
2022-11-16T14:21:57.424Z,7.80
2022-11-16T14:24:15.020Z,7.70
2022-11-16T14:26:40.873Z,7.70
2022-11-16T14:29:02.128Z,7.70
2022-11-16T14:31:15.900Z,7.70
2022-11-16T14:33:32.028Z,7.70
2022-11-16T14:35:35.927Z,7.70
2022-11-16T14:37:42.348Z,7.70
2022-11-16T14:39:45.071Z,7.80
2022-11-16T14:41:48.622Z,7.80
2022-11-16T14:43:56.868Z,7.80
2022-11-16T14:46:03.599Z,7.80
2022-11-16T14:48:17.791Z,7.70
2022-11-16T14:50:23.198Z,7.70
2022-11-16T14:52:39.672Z,7.70
2022-11-16T14:55:01.538Z,7.60
2022-11-16T14:57:06.299Z,7.70
2022-11-16T14:59:17.592Z,7.70
2022-11-16T15:01:23.967Z,7.70
2022-11-16T15:03:33.895Z,7.70
2022-11-16T15:05:37.516Z,7.80
2022-11-16T15:07:42.932Z,7.80
2022-11-16T15:09:49.589Z,7.70
2022-11-16T15:12:10.655Z,7.70
2022-11-16T15:14:17.969Z,7.70
2022-11-16T15:16:20.420Z,7.60
2022-11-16T15:18:23.265Z,7.60
2022-11-16T15:20:28.592Z,7.50
2022-11-16T15:22:39.107Z,7.60
2022-11-16T15:24:41.124Z,7.60
2022-11-16T15:26:43.550Z,7.60
2022-11-16T15:28:49.879Z,7.60
2022-11-16T15:31:00.701Z,7.60
2022-11-16T15:33:08.320Z,7.50
2022-11-16T15:35:21.738Z,7.60
2022-11-16T15:37:30.277Z,7.60
2022-11-16T15:39:36.188Z,7.50
2022-11-16T15:41:38.741Z,7.50
2022-11-16T15:44:11.761Z,7.50
2022-11-16T15:46:08.966Z,7.50
2022-11-16T15:48:20.920Z,7.50
2022-11-16T15:50:23.976Z,7.50
2022-11-16T15:52:50.166Z,7.50
2022-11-16T15:55:06.787Z,7.50
2022-11-16T15:57:13.476Z,7.40
2022-11-16T15:59:34.211Z,7.40
2022-11-16T16:01:45.206Z,7.40
2022-11-16T16:04:08.169Z,7.40
2022-11-16T16:06:17.629Z,7.40
2022-11-16T16:08:35.577Z,7.40
2022-11-16T16:10:37.567Z,7.40
2022-11-16T16:12:53.865Z,7.30
2022-11-16T16:15:29.900Z,7.40
2022-11-16T16:17:31.851Z,7.30
2022-11-16T16:19:38.886Z,7.30
2022-11-16T16:21:45.818Z,7.30
2022-11-16T16:23:53.793Z,7.30
2022-11-16T16:25:55.723Z,7.30
2022-11-16T16:27:58.374Z,7.30
2022-11-16T16:30:04.871Z,7.30
2022-11-16T16:32:29.317Z,7.30
2022-11-16T16:34:31.167Z,7.30
2022-11-16T16:36:33.014Z,7.30
2022-11-16T16:38:34.957Z,7.20
2022-11-16T16:40:36.900Z,7.20
2022-11-16T16:42:40.914Z,7.30
2022-11-16T16:44:44.169Z,7.30
2022-11-16T16:46:45.983Z,7.30
2022-11-16T16:48:48.353Z,7.30
2022-11-16T16:50:50.354Z,7.40
2022-11-16T16:52:52.183Z,7.40
2022-11-16T16:54:54.750Z,7.40
2022-11-16T16:56:58.735Z,7.30
2022-11-16T16:59:00.678Z,7.30
2022-11-16T17:01:05.132Z,7.30
2022-11-16T17:03:07.151Z,7.30
2022-11-16T17:05:11.475Z,7.30
2022-11-16T17:07:16.049Z,7.20
2022-11-16T17:09:18.078Z,7.20
2022-11-16T17:11:19.940Z,7.20
2022-11-16T17:13:22.847Z,7.20
2022-11-16T17:15:25.143Z,7.20
2022-11-16T17:17:27.146Z,7.20
2022-11-16T17:19:29.811Z,7.20
2022-11-16T17:21:32.071Z,7.10
2022-11-16T17:23:36.038Z,7.10
2022-11-16T17:25:38.589Z,7.10
2022-11-16T17:27:40.914Z,7.10
2022-11-16T17:29:42.914Z,7.00
2022-11-16T17:31:53.343Z,7.00
2022-11-16T17:33:59.841Z,7.00
2022-11-16T17:36:04.819Z,7.00
2022-11-16T17:38:07.352Z,7.10
2022-11-16T17:40:14.859Z,7.00
2022-11-16T17:42:54.292Z,7.10
2022-11-16T17:45:05.215Z,7.00
2022-11-16T17:47:13.510Z,7.10
2022-11-16T17:49:16.780Z,7.10
2022-11-16T17:51:28.526Z,7.10
2022-11-16T17:53:33.025Z,7.10
2022-11-16T17:55:39.514Z,7.10
2022-11-16T17:57:43.241Z,7.00
2022-11-16T17:59:48.079Z,7.00
2022-11-16T20:15:30.253Z,6.90
2022-11-16T20:17:32.088Z,6.90
2022-11-16T20:19:33.941Z,6.90
2022-11-16T20:21:41.010Z,6.80
2022-11-16T20:23:44.627Z,6.80
2022-11-16T20:25:46.519Z,6.70
2022-11-16T20:27:48.409Z,6.70
2022-11-16T20:29:50.272Z,6.60
2022-11-16T20:31:52.193Z,6.60
2022-11-16T20:33:59.367Z,6.60
2022-11-16T20:36:02.956Z,6.70
2022-11-16T20:38:05.114Z,6.70
2022-11-16T20:40:07.569Z,6.70
2022-11-16T20:42:09.513Z,6.70
2022-11-16T20:44:16.794Z,6.60
2022-11-16T20:46:20.317Z,6.60
2022-11-16T20:48:22.189Z,6.60
2022-11-16T20:50:24.232Z,6.70
2022-11-16T20:52:26.186Z,6.70
2022-11-16T20:54:28.579Z,6.70
2022-11-16T20:56:30.783Z,6.70
2022-11-16T20:58:32.694Z,6.60
2022-11-16T21:00:34.988Z,6.60
2022-11-16T21:02:36.955Z,6.60
2022-11-16T21:04:38.851Z,6.60
2022-11-16T21:06:40.844Z,6.70
2022-11-16T21:08:42.929Z,6.70
2022-11-16T21:10:45.056Z,6.70
2022-11-16T21:13:05.598Z,6.70
2022-11-16T21:15:08.224Z,6.70
2022-11-16T21:17:10.261Z,6.60
2022-11-16T21:19:12.676Z,6.70
2022-11-16T21:21:14.961Z,6.60
2022-11-16T21:23:16.918Z,6.60
2022-11-16T21:25:18.764Z,6.60
2022-11-16T21:27:20.604Z,6.60
2022-11-16T21:29:26.160Z,6.70
2022-11-16T21:31:30.326Z,6.70
2022-11-16T21:33:33.104Z,6.80
2022-11-16T21:35:35.382Z,6.80
2022-11-16T21:37:37.523Z,6.80
2022-11-16T21:39:39.350Z,6.80
2022-11-16T21:41:41.270Z,6.70
2022-11-16T21:43:44.084Z,6.70
2022-11-16T21:45:47.577Z,6.70
2022-11-16T21:47:50.711Z,6.70
2022-11-16T21:50:24.861Z,6.70
2022-11-16T21:52:18.538Z,6.70
2022-11-16T21:54:20.472Z,6.70
2022-11-16T21:56:24.425Z,6.70
2022-11-16T21:58:26.871Z,6.70
2022-11-16T22:00:29.185Z,6.70
2022-11-16T22:02:32.917Z,6.60
2022-11-16T22:04:53.829Z,6.50
2022-11-16T22:07:14.277Z,6.50
2022-11-16T22:09:16.871Z,6.50
2022-11-16T22:11:39.745Z,6.50
2022-11-16T22:13:42.914Z,6.60
2022-11-16T22:15:44.967Z,6.50
2022-11-16T22:17:46.811Z,6.50
2022-11-16T22:19:49.099Z,6.40
2022-11-16T22:21:51.185Z,6.50
2022-11-16T22:23:53.031Z,6.50
2022-11-16T22:25:59.916Z,6.50
2022-11-16T22:30:23.809Z,6.70
2022-11-16T22:32:25.729Z,6.60
2022-11-16T22:34:27.757Z,6.60
2022-11-16T22:36:29.612Z,6.70
2022-11-16T22:38:31.700Z,6.70
2022-11-16T22:40:33.457Z,6.60
2022-11-16T22:42:35.301Z,6.50
2022-11-16T22:44:37.284Z,6.50
2022-11-16T22:46:39.243Z,6.60
2022-11-16T22:48:41.223Z,6.60
2022-11-16T22:50:43.720Z,6.50
2022-11-16T22:52:45.917Z,6.60
2022-11-16T22:54:47.824Z,6.50
2022-11-16T22:56:49.698Z,6.50
2022-11-16T22:58:51.995Z,6.50
2022-11-16T23:00:53.857Z,6.60
2022-11-16T23:02:55.765Z,6.60
2022-11-16T23:04:57.645Z,6.50
2022-11-16T23:07:00.453Z,6.50
2022-11-16T23:09:02.390Z,6.60
2022-11-16T23:11:25.976Z,6.60
2022-11-16T23:13:46.483Z,6.80
2022-11-16T23:15:51.125Z,6.80
2022-11-16T23:17:52.971Z,6.70
2022-11-16T23:20:17.656Z,6.70
2022-11-16T23:22:40.438Z,6.70
2022-11-16T23:25:01.894Z,6.70
2022-11-16T23:27:23.237Z,6.70
2022-11-16T23:29:25.170Z,6.80
2022-11-16T23:31:27.011Z,6.80
2022-11-16T23:33:44.125Z,6.70
2022-11-16T23:35:46.073Z,6.70
2022-11-16T23:37:56.467Z,6.70
2022-11-16T23:39:58.324Z,6.70
2022-11-16T23:42:19.001Z,6.70
2022-11-16T23:44:20.883Z,6.80
2022-11-16T23:46:22.752Z,6.80
2022-11-16T23:48:25.076Z,6.80
2022-11-16T23:50:26.989Z,6.70
2022-11-16T23:52:28.823Z,6.80
2022-11-16T23:54:30.702Z,6.90
2022-11-16T23:56:32.585Z,6.80
2022-11-16T23:58:34.458Z,6.90
